sensor_id;sensor_type;location;lat;lon;timestamp;pressure;altitude;pressure_sealevel;temperature;humidity
11223;BME280;5668;52.012;8.724;2023-02-17T00:01:56;100499.88;;;10.33;100.00
11223;BME280;5668;52.012;8.724;2023-02-17T00:04:23;100500.81;;;10.32;100.00
11223;BME280;5668;52.012;8.724;2023-02-17T00:06:50;100496.34;;;10.34;100.00
11223;BME280;5668;52.012;8.724;2023-02-17T00:09:17;100483.47;;;10.33;100.00
11223;BME280;5668;52.012;8.724;2023-02-17T00:11:44;100486.06;;;10.33;100.00
11223;BME280;5668;52.012;8.724;2023-02-17T00:14:12;100472.25;;;10.32;100.00
11223;BME280;5668;52.012;8.724;2023-02-17T00:16:40;100472.25;;;10.32;100.00
11223;BME280;5668;52.012;8.724;2023-02-17T00:19:10;100478.19;;;10.34;100.00
11223;BME280;5668;52.012;8.724;2023-02-17T00:21:49;100458.22;;;10.35;100.00
11223;BME280;5668;52.012;8.724;2023-02-17T00:24:16;100465.69;;;10.39;100.00
11223;BME280;5668;52.012;8.724;2023-02-17T00:26:44;100440.56;;;10.40;100.00
11223;BME280;5668;52.012;8.724;2023-02-17T00:29:11;100451.78;;;10.40;100.00
11223;BME280;5668;52.012;8.724;2023-02-17T00:31:38;100447.50;;;10.39;100.00
11223;BME280;5668;52.012;8.724;2023-02-17T00:34:07;100440.88;;;10.35;100.00
11223;BME280;5668;52.012;8.724;2023-02-17T00:36:34;100449.19;;;10.40;100.00
11223;BME280;5668;52.012;8.724;2023-02-17T00:39:02;100440.78;;;10.37;100.00
11223;BME280;5668;52.012;8.724;2023-02-17T00:41:30;100442.66;;;10.35;100.00
11223;BME280;5668;52.012;8.724;2023-02-17T00:43:57;100454.69;;;10.36;100.00
11223;BME280;5668;52.012;8.724;2023-02-17T00:46:25;100447.41;;;10.41;100.00
11223;BME280;5668;52.012;8.724;2023-02-17T00:48:53;100446.41;;;10.43;100.00
11223;BME280;5668;52.012;8.724;2023-02-17T00:51:22;100447.22;;;10.44;100.00
11223;BME280;5668;52.012;8.724;2023-02-17T00:53:50;100451.38;;;10.46;100.00
11223;BME280;5668;52.012;8.724;2023-02-17T00:56:17;100449.69;;;10.45;100.00
11223;BME280;5668;52.012;8.724;2023-02-17T00:58:45;100448.06;;;10.44;100.00
11223;BME280;5668;52.012;8.724;2023-02-17T01:01:12;100443.47;;;10.48;100.00
11223;BME280;5668;52.012;8.724;2023-02-17T01:03:39;100439.00;;;10.50;100.00
11223;BME280;5668;52.012;8.724;2023-02-17T01:06:09;100443.47;;;10.48;100.00
11223;BME280;5668;52.012;8.724;2023-02-17T01:08:37;100439.94;;;10.49;100.00
11223;BME280;5668;52.012;8.724;2023-02-17T01:11:05;100437.25;;;10.51;100.00
11223;BME280;5668;52.012;8.724;2023-02-17T01:13:32;100426.97;;;10.49;100.00
11223;BME280;5668;52.012;8.724;2023-02-17T01:15:59;100433.72;;;10.52;100.00
11223;BME280;5668;52.012;8.724;2023-02-17T01:18:26;100436.09;;;10.55;100.00
11223;BME280;5668;52.012;8.724;2023-02-17T01:20:54;100438.69;;;10.55;100.00
11223;BME280;5668;52.012;8.724;2023-02-17T01:23:21;100433.41;;;10.56;100.00
11223;BME280;5668;52.012;8.724;2023-02-17T01:25:49;100431.53;;;10.58;100.00
11223;BME280;5668;52.012;8.724;2023-02-17T01:28:20;100424.56;;;10.59;100.00
11223;BME280;5668;52.012;8.724;2023-02-17T01:30:48;100423.63;;;10.60;100.00
11223;BME280;5668;52.012;8.724;2023-02-17T01:33:15;100429.53;;;10.62;100.00
11223;BME280;5668;52.012;8.724;2023-02-17T01:35:43;100427.69;;;10.64;100.00
11223;BME280;5668;52.012;8.724;2023-02-17T01:38:10;100410.41;;;10.63;100.00
11223;BME280;5668;52.012;8.724;2023-02-17T01:40:44;100422.47;;;10.64;100.00
11223;BME280;5668;52.012;8.724;2023-02-17T01:43:15;100417.28;;;10.64;100.00
11223;BME280;5668;52.012;8.724;2023-02-17T01:45:46;100412.81;;;10.66;100.00
11223;BME280;5668;52.012;8.724;2023-02-17T01:48:17;100409.28;;;10.67;100.00
11223;BME280;5668;52.012;8.724;2023-02-17T01:50:49;100398.75;;;10.68;100.00
11223;BME280;5668;52.012;8.724;2023-02-17T01:53:21;100390.97;;;10.68;100.00
11223;BME280;5668;52.012;8.724;2023-02-17T01:55:52;100397.72;;;10.71;100.00
11223;BME280;5668;52.012;8.724;2023-02-17T01:58:23;100395.03;;;10.72;100.00
11223;BME280;5668;52.012;8.724;2023-02-17T02:00:52;100386.59;;;10.69;100.00
11223;BME280;5668;52.012;8.724;2023-02-17T02:03:21;100388.38;;;10.68;100.00
11223;BME280;5668;52.012;8.724;2023-02-17T02:05:49;100384.00;;;10.69;100.00
11223;BME280;5668;52.012;8.724;2023-02-17T02:08:16;100383.16;;;10.68;100.00
11223;BME280;5668;52.012;8.724;2023-02-17T02:10:43;100370.06;;;10.70;100.00
11223;BME280;5668;52.012;8.724;2023-02-17T02:13:11;100378.81;;;10.69;100.00
11223;BME280;5668;52.012;8.724;2023-02-17T02:15:47;100361.34;;;10.71;100.00
11223;BME280;5668;52.012;8.724;2023-02-17T02:18:28;100356.03;;;10.72;100.00
11223;BME280;5668;52.012;8.724;2023-02-17T02:24:07;100355.13;;;10.73;100.00
11223;BME280;5668;52.012;8.724;2023-02-17T02:27:20;100349.09;;;10.73;100.00
11223;BME280;5668;52.012;8.724;2023-02-17T02:32:58;100348.25;;;10.72;100.00
11223;BME280;5668;52.012;8.724;2023-02-17T02:35:35;100349.81;;;10.75;100.00
11223;BME280;5668;52.012;8.724;2023-02-17T02:38:10;100349.81;;;10.75;100.00
11223;BME280;5668;52.012;8.724;2023-02-17T02:40:42;100355.59;;;10.78;100.00
11223;BME280;5668;52.012;8.724;2023-02-17T02:43:11;100356.53;;;10.77;100.00
11223;BME280;5668;52.012;8.724;2023-02-17T02:45:39;100352.19;;;10.78;100.00
11223;BME280;5668;52.012;8.724;2023-02-17T02:48:08;100345.31;;;10.77;100.00
11223;BME280;5668;52.012;8.724;2023-02-17T02:50:51;100346.97;;;10.78;100.00
11223;BME280;5668;52.012;8.724;2023-02-17T02:53:44;100347.81;;;10.78;100.00
11223;BME280;5668;52.012;8.724;2023-02-17T02:56:23;100344.47;;;10.76;100.00
11223;BME280;5668;52.012;8.724;2023-02-17T02:58:59;100340.84;;;10.79;100.00
11223;BME280;5668;52.012;8.724;2023-02-17T03:01:38;100350.31;;;10.80;100.00
11223;BME280;5668;52.012;8.724;2023-02-17T03:04:14;100348.66;;;10.79;100.00
11223;BME280;5668;52.012;8.724;2023-02-17T03:06:48;100350.31;;;10.80;100.00
11223;BME280;5668;52.012;8.724;2023-02-17T03:09:21;100344.88;;;10.83;100.00
11223;BME280;5668;52.012;8.724;2023-02-17T03:11:49;100348.22;;;10.85;100.00
11223;BME280;5668;52.012;8.724;2023-02-17T03:14:18;100343.25;;;10.82;100.00
11223;BME280;5668;52.012;8.724;2023-02-17T03:16:47;100335.44;;;10.82;100.00
11223;BME280;5668;52.012;8.724;2023-02-17T03:19:17;100330.34;;;10.80;100.00
11223;BME280;5668;52.012;8.724;2023-02-17T03:21:49;100310.28;;;10.82;100.00
11223;BME280;5668;52.012;8.724;2023-02-17T03:24:18;100309.56;;;10.80;100.00
11223;BME280;5668;52.012;8.724;2023-02-17T03:26:45;100299.75;;;10.84;100.00
11223;BME280;5668;52.012;8.724;2023-02-17T03:29:12;100287.47;;;10.86;100.00
11223;BME280;5668;52.012;8.724;2023-02-17T03:31:40;100295.91;;;10.90;100.00
11223;BME280;5668;52.012;8.724;2023-02-17T03:34:08;100288.09;;;10.90;100.00
11223;BME280;5668;52.012;8.724;2023-02-17T03:36:36;100279.34;;;10.91;100.00
11223;BME280;5668;52.012;8.724;2023-02-17T03:39:03;100270.41;;;10.95;100.00
11223;BME280;5668;52.012;8.724;2023-02-17T03:41:31;100283.50;;;10.93;100.00
11223;BME280;5668;52.012;8.724;2023-02-17T03:43:58;100284.97;;;10.97;100.00
11223;BME280;5668;52.012;8.724;2023-02-17T03:46:25;100284.97;;;10.97;100.00
11223;BME280;5668;52.012;8.724;2023-02-17T03:48:52;100288.50;;;10.96;100.00
11223;BME280;5668;52.012;8.724;2023-02-17T03:51:21;100284.22;;;10.95;100.00
11223;BME280;5668;52.012;8.724;2023-02-17T03:53:50;100284.34;;;10.94;100.00
11223;BME280;5668;52.012;8.724;2023-02-17T03:56:18;100280.16;;;10.91;100.00
11223;BME280;5668;52.012;8.724;2023-02-17T03:58:45;100293.16;;;10.91;100.00
11223;BME280;5668;52.012;8.724;2023-02-17T04:01:13;100283.50;;;10.93;100.00
11223;BME280;5668;52.012;8.724;2023-02-17T04:03:40;100285.38;;;10.91;100.00
11223;BME280;5668;52.012;8.724;2023-02-17T04:06:09;100273.84;;;10.95;100.00
11223;BME280;5668;52.012;8.724;2023-02-17T04:08:36;100286.84;;;10.95;100.00
11223;BME280;5668;52.012;8.724;2023-02-17T04:11:07;100290.97;;;10.98;100.00
11223;BME280;5668;52.012;8.724;2023-02-17T04:13:35;100293.69;;;10.96;100.00
11223;BME280;5668;52.012;8.724;2023-02-17T04:16:03;100292.03;;;10.95;100.00
11223;BME280;5668;52.012;8.724;2023-02-17T04:18:30;100285.91;;;10.96;100.00
11223;BME280;5668;52.012;8.724;2023-02-17T04:20:58;100281.63;;;10.95;100.00
11223;BME280;5668;52.012;8.724;2023-02-17T04:23:25;100273.00;;;10.95;100.00
11223;BME280;5668;52.012;8.724;2023-02-17T04:25:53;100276.31;;;10.97;100.00
11223;BME280;5668;52.012;8.724;2023-02-17T04:28:22;100289.09;;;11.00;100.00
11223;BME280;5668;52.012;8.724;2023-02-17T04:30:50;100291.09;;;10.96;100.00
11223;BME280;5668;52.012;8.724;2023-02-17T04:33:17;100298.28;;;10.93;100.00
11223;BME280;5668;52.012;8.724;2023-02-17T04:35:45;100305.97;;;10.94;100.00
11223;BME280;5668;52.012;8.724;2023-02-17T04:38:13;100299.09;;;10.93;100.00
11223;BME280;5668;52.012;8.724;2023-02-17T04:40:40;100298.06;;;10.96;100.00
11223;BME280;5668;52.012;8.724;2023-02-17T04:43:08;100299.72;;;10.97;100.00
11223;BME280;5668;52.012;8.724;2023-02-17T04:45:36;100296.16;;;10.98;100.00
11223;BME280;5668;52.012;8.724;2023-02-17T04:48:04;100290.84;;;10.99;100.00
11223;BME280;5668;52.012;8.724;2023-02-17T04:50:31;100281.38;;;10.98;100.00
11223;BME280;5668;52.012;8.724;2023-02-17T04:52:58;100285.66;;;10.99;100.00
11223;BME280;5668;52.012;8.724;2023-02-17T04:55:26;100274.22;;;11.02;100.00
11223;BME280;5668;52.012;8.724;2023-02-17T04:57:54;100273.50;;;11.00;100.00
11223;BME280;5668;52.012;8.724;2023-02-17T05:00:21;100275.25;;;10.99;100.00
11223;BME280;5668;52.012;8.724;2023-02-17T05:02:50;100268.91;;;11.03;100.00
11223;BME280;5668;52.012;8.724;2023-02-17T05:05:17;100255.88;;;11.27;100.00
11223;BME280;5668;52.012;8.724;2023-02-17T05:07:46;100253.97;;;11.18;100.00
11223;BME280;5668;52.012;8.724;2023-02-17T05:10:15;100238.47;;;11.16;100.00
11223;BME280;5668;52.012;8.724;2023-02-17T05:12:43;100255.09;;;11.14;100.00
11223;BME280;5668;52.012;8.724;2023-02-17T05:15:11;100248.59;;;11.08;100.00
11223;BME280;5668;52.012;8.724;2023-02-17T05:17:39;100237.03;;;11.12;100.00
11223;BME280;5668;52.012;8.724;2023-02-17T05:20:09;100235.13;;;11.14;100.00
11223;BME280;5668;52.012;8.724;2023-02-17T05:22:37;100238.91;;;11.10;100.00
11223;BME280;5668;52.012;8.724;2023-02-17T05:25:05;100226.75;;;11.11;100.00
11223;BME280;5668;52.012;8.724;2023-02-17T05:27:33;100223.06;;;11.13;100.00
11223;BME280;5668;52.012;8.724;2023-02-17T05:30:01;100220.34;;;11.15;100.00
11223;BME280;5668;52.012;8.724;2023-02-17T05:32:28;100212.44;;;11.16;100.00
11223;BME280;5668;52.012;8.724;2023-02-17T05:34:55;100214.09;;;11.17;100.00
11223;BME280;5668;52.012;8.724;2023-02-17T05:37:24;100223.78;;;11.15;100.00
11223;BME280;5668;52.012;8.724;2023-02-17T05:39:52;100236.06;;;11.13;100.00
11223;BME280;5668;52.012;8.724;2023-02-17T05:42:19;100234.19;;;11.15;100.00
11223;BME280;5668;52.012;8.724;2023-02-17T05:44:46;100232.63;;;11.13;100.00
11223;BME280;5668;52.012;8.724;2023-02-17T05:47:14;100237.72;;;11.14;100.00
11223;BME280;5668;52.012;8.724;2023-02-17T05:49:41;100241.16;;;11.15;100.00
11223;BME280;5668;52.012;8.724;2023-02-17T05:52:08;100234.31;;;11.14;100.00
11223;BME280;5668;52.012;8.724;2023-02-17T05:54:36;100243.88;;;11.13;100.00
11223;BME280;5668;52.012;8.724;2023-02-17T05:57:04;100240.84;;;11.19;100.00
11223;BME280;5668;52.012;8.724;2023-02-17T05:59:31;100221.56;;;11.22;100.00
11223;BME280;5668;52.012;8.724;2023-02-17T06:01:58;100201.09;;;11.17;100.00
11223;BME280;5668;52.012;8.724;2023-02-17T06:04:25;100202.78;;;11.18;100.00
11223;BME280;5668;52.012;8.724;2023-02-17T06:06:53;100218.84;;;11.23;100.00
11223;BME280;5668;52.012;8.724;2023-02-17T06:09:20;100215.41;;;11.23;100.00
11223;BME280;5668;52.012;8.724;2023-02-17T06:11:48;100208.22;;;11.27;100.00
11223;BME280;5668;52.012;8.724;2023-02-17T06:14:15;100210.84;;;11.27;100.00
11223;BME280;5668;52.012;8.724;2023-02-17T06:16:43;100215.91;;;11.28;100.00
11223;BME280;5668;52.012;8.724;2023-02-17T06:19:10;100213.91;;;11.32;100.00
11223;BME280;5668;52.012;8.724;2023-02-17T06:21:37;100209.66;;;11.31;100.00
11223;BME280;5668;52.012;8.724;2023-02-17T06:24:05;100211.31;;;11.32;100.00
11223;BME280;5668;52.012;8.724;2023-02-17T06:26:33;100207.16;;;11.29;100.00
11223;BME280;5668;52.012;8.724;2023-02-17T06:29:01;100192.16;;;11.33;100.00
11223;BME280;5668;52.012;8.724;2023-02-17T06:31:28;100180.09;;;11.32;100.00
11223;BME280;5668;52.012;8.724;2023-02-17T06:33:55;100181.03;;;11.31;100.00
11223;BME280;5668;52.012;8.724;2023-02-17T06:36:23;100190.59;;;11.30;100.00
11223;BME280;5668;52.012;8.724;2023-02-17T06:38:50;100187.19;;;11.30;100.00
11223;BME280;5668;52.012;8.724;2023-02-17T06:41:17;100185.28;;;11.32;100.00
11223;BME280;5668;52.012;8.724;2023-02-17T06:43:44;100201.75;;;11.32;100.00
11223;BME280;5668;52.012;8.724;2023-02-17T06:46:13;100209.44;;;11.34;100.00
11223;BME280;5668;52.012;8.724;2023-02-17T06:48:40;100221.94;;;11.29;100.00
11223;BME280;5668;52.012;8.724;2023-02-17T06:51:07;100229.25;;;11.23;100.00
11223;BME280;5668;52.012;8.724;2023-02-17T06:53:34;100237.16;;;11.22;100.00
11223;BME280;5668;52.012;8.724;2023-02-17T06:56:02;100228.31;;;11.24;100.00
11223;BME280;5668;52.012;8.724;2023-02-17T06:58:29;100227.38;;;11.25;100.00
11223;BME280;5668;52.012;8.724;2023-02-17T07:00:57;100231.66;;;11.27;100.00
11223;BME280;5668;52.012;8.724;2023-02-17T07:03:26;100228.31;;;11.24;100.00
11223;BME280;5668;52.012;8.724;2023-02-17T07:05:56;100214.38;;;11.25;100.00
11223;BME280;5668;52.012;8.724;2023-02-17T07:08:25;100215.09;;;11.28;100.00
11223;BME280;5668;52.012;8.724;2023-02-17T07:10:52;100217.56;;;11.29;100.00
11223;BME280;5668;52.012;8.724;2023-02-17T07:13:19;100214.28;;;11.27;100.00
11223;BME280;5668;52.012;8.724;2023-02-17T07:15:47;100200.53;;;11.25;100.00
11223;BME280;5668;52.012;8.724;2023-02-17T07:18:14;100191.78;;;11.26;100.00
11223;BME280;5668;52.012;8.724;2023-02-17T07:20:42;100215.91;;;11.28;100.00
11223;BME280;5668;52.012;8.724;2023-02-17T07:23:09;100195.91;;;11.29;100.00
11223;BME280;5668;52.012;8.724;2023-02-17T07:25:37;100196.63;;;11.31;100.00
11223;BME280;5668;52.012;8.724;2023-02-17T07:28:04;100197.38;;;11.33;100.00
11223;BME280;5668;52.012;8.724;2023-02-17T07:30:31;100190.28;;;11.35;100.00
11223;BME280;5668;52.012;8.724;2023-02-17T07:32:58;100207.53;;;11.36;100.00
11223;BME280;5668;52.012;8.724;2023-02-17T07:35:26;100201.38;;;11.37;100.00
11223;BME280;5668;52.012;8.724;2023-02-17T07:37:56;100202.09;;;11.39;100.00
11223;BME280;5668;52.012;8.724;2023-02-17T07:40:24;100186.50;;;11.39;100.00
11223;BME280;5668;52.012;8.724;2023-02-17T07:42:51;100176.56;;;11.44;100.00
11223;BME280;5668;52.012;8.724;2023-02-17T07:45:19;100172.19;;;11.44;100.00
11223;BME280;5668;52.012;8.724;2023-02-17T07:47:46;100161.44;;;11.49;100.00
11223;BME280;5668;52.012;8.724;2023-02-17T07:52:41;100178.47;;;11.53;100.00
11223;BME280;5668;52.012;8.724;2023-02-17T07:55:10;100174.47;;;11.49;100.00
11223;BME280;5668;52.012;8.724;2023-02-17T07:57:37;100164.16;;;11.47;100.00
11223;BME280;5668;52.012;8.724;2023-02-17T08:00:06;100177.88;;;11.49;100.00
11223;BME280;5668;52.012;8.724;2023-02-17T08:02:34;100186.38;;;11.51;100.00
11223;BME280;5668;52.012;8.724;2023-02-17T08:05:01;100176.56;;;11.44;100.00
11223;BME280;5668;52.012;8.724;2023-02-17T08:07:28;100160.72;;;11.47;100.00
11223;BME280;5668;52.012;8.724;2023-02-17T08:09:57;100165.94;;;11.47;100.00
11223;BME280;5668;52.012;8.724;2023-02-17T08:12:43;100166.88;;;11.46;100.00
11223;BME280;5668;52.012;8.724;2023-02-17T08:15:32;100166.88;;;11.46;100.00
11223;BME280;5668;52.012;8.724;2023-02-17T08:18:00;100163.44;;;11.45;100.00
11223;BME280;5668;52.012;8.724;2023-02-17T08:20:29;100154.47;;;11.49;100.00
11223;BME280;5668;52.012;8.724;2023-02-17T08:22:57;100152.69;;;11.50;100.00
11223;BME280;5668;52.012;8.724;2023-02-17T08:25:26;100153.50;;;11.50;100.00
11223;BME280;5668;52.012;8.724;2023-02-17T08:27:54;100147.34;;;11.51;100.00
11223;BME280;5668;52.012;8.724;2023-02-17T08:30:22;100134.69;;;11.47;100.00
11223;BME280;5668;52.012;8.724;2023-02-17T08:32:49;100129.38;;;11.48;100.00
11223;BME280;5668;52.012;8.724;2023-02-17T08:35:16;100130.22;;;11.49;100.00
11223;BME280;5668;52.012;8.724;2023-02-17T08:37:44;100133.97;;;11.45;100.00
11223;BME280;5668;52.012;8.724;2023-02-17T08:40:12;100129.59;;;11.45;100.00
11223;BME280;5668;52.012;8.724;2023-02-17T08:42:40;100120.88;;;11.46;100.00
11223;BME280;5668;52.012;8.724;2023-02-17T08:45:08;100132.94;;;11.47;100.00
11223;BME280;5668;52.012;8.724;2023-02-17T08:47:36;100125.34;;;11.44;100.00
11223;BME280;5668;52.012;8.724;2023-02-17T08:50:05;100125.22;;;11.46;100.00
11223;BME280;5668;52.012;8.724;2023-02-17T08:52:33;100140.00;;;11.45;100.00
11223;BME280;5668;52.012;8.724;2023-02-17T08:55:01;100131.06;;;11.49;100.00
11223;BME280;5668;52.012;8.724;2023-02-17T08:57:29;100130.78;;;11.52;100.00
11223;BME280;5668;52.012;8.724;2023-02-17T08:59:56;100131.41;;;11.56;100.00
11223;BME280;5668;52.012;8.724;2023-02-17T09:02:24;100132.22;;;11.56;100.00
11223;BME280;5668;52.012;8.724;2023-02-17T09:04:52;100134.94;;;11.55;100.00
11223;BME280;5668;52.012;8.724;2023-02-17T09:07:19;100136.59;;;11.56;100.00
11223;BME280;5668;52.012;8.724;2023-02-17T09:09:46;100141.56;;;11.59;100.00
11223;BME280;5668;52.012;8.724;2023-02-17T09:12:13;100138.00;;;11.60;100.00
11223;BME280;5668;52.012;8.724;2023-02-17T09:14:40;100138.00;;;11.60;100.00
11223;BME280;5668;52.012;8.724;2023-02-17T09:17:09;100143.94;;;11.62;100.00
11223;BME280;5668;52.012;8.724;2023-02-17T09:19:39;100142.88;;;11.64;100.00
11223;BME280;5668;52.012;8.724;2023-02-17T09:22:06;100153.16;;;11.66;100.00
11223;BME280;5668;52.012;8.724;2023-02-17T09:24:33;100154.81;;;11.67;100.00
11223;BME280;5668;52.012;8.724;2023-02-17T09:27:03;100156.59;;;11.67;100.00
11223;BME280;5668;52.012;8.724;2023-02-17T09:29:30;100152.56;;;11.62;100.00
11223;BME280;5668;52.012;8.724;2023-02-17T09:31:58;100159.34;;;11.65;100.00
11223;BME280;5668;52.012;8.724;2023-02-17T09:34:25;100163.00;;;11.62;100.00
11223;BME280;5668;52.012;8.724;2023-02-17T09:36:53;100158.34;;;11.66;100.00
11223;BME280;5668;52.012;8.724;2023-02-17T09:39:21;100159.44;;;11.63;100.00
11223;BME280;5668;52.012;8.724;2023-02-17T09:41:50;100167.38;;;11.62;100.00
11223;BME280;5668;52.012;8.724;2023-02-17T09:44:22;100169.03;;;11.63;100.00
11223;BME280;5668;52.012;8.724;2023-02-17T09:46:56;100183.44;;;11.67;100.00
11223;BME280;5668;52.012;8.724;2023-02-17T09:49:27;100171.88;;;11.71;100.00
11223;BME280;5668;52.012;8.724;2023-02-17T09:52:03;100193.53;;;11.72;100.00
11223;BME280;5668;52.012;8.724;2023-02-17T09:54:36;100195.53;;;11.68;100.00
11223;BME280;5668;52.012;8.724;2023-02-17T09:57:09;100172.69;;;11.60;100.00
11223;BME280;5668;52.012;8.724;2023-02-17T09:59:42;100189.84;;;11.63;100.00
11223;BME280;5668;52.012;8.724;2023-02-17T10:02:15;100187.97;;;11.65;100.00
11223;BME280;5668;52.012;8.724;2023-02-17T10:04:46;100170.94;;;11.72;100.00
11223;BME280;5668;52.012;8.724;2023-02-17T10:07:20;100196.75;;;11.75;100.00
11223;BME280;5668;52.012;8.724;2023-02-17T10:09:54;100199.34;;;11.75;100.00
11223;BME280;5668;52.012;8.724;2023-02-17T10:12:25;100197.47;;;11.77;100.00
11223;BME280;5668;52.012;8.724;2023-02-17T10:15:00;100187.63;;;11.81;100.00
11223;BME280;5668;52.012;8.724;2023-02-17T10:17:34;100197.81;;;11.84;100.00
11223;BME280;5668;52.012;8.724;2023-02-17T10:20:07;100191.06;;;11.81;100.00
11223;BME280;5668;52.012;8.724;2023-02-17T10:22:38;100170.94;;;11.83;100.00
11223;BME280;5668;52.012;8.724;2023-02-17T10:25:14;100167.19;;;11.87;100.00
11223;BME280;5668;52.012;8.724;2023-02-17T10:27:47;100155.78;;;11.88;100.00
11223;BME280;5668;52.012;8.724;2023-02-17T10:30:29;100160.88;;;11.90;100.00
11223;BME280;5668;52.012;8.724;2023-02-17T10:33:00;100156.50;;;11.90;100.00
11223;BME280;5668;52.012;8.724;2023-02-17T10:35:42;100145.03;;;11.93;100.00
11223;BME280;5668;52.012;8.724;2023-02-17T10:38:16;100142.06;;;11.97;100.00
11223;BME280;5668;52.012;8.724;2023-02-17T10:40:46;100133.06;;;12.01;100.00
11223;BME280;5668;52.012;8.724;2023-02-17T10:43:23;100133.63;;;12.05;100.00
11223;BME280;5668;52.012;8.724;2023-02-17T10:45:52;100131.75;;;12.07;100.00
11223;BME280;5668;52.012;8.724;2023-02-17T10:48:22;100118.84;;;12.06;100.00
11223;BME280;5668;52.012;8.724;2023-02-17T10:50:51;100107.38;;;12.08;100.00
11223;BME280;5668;52.012;8.724;2023-02-17T10:53:22;100106.53;;;12.08;100.00
11223;BME280;5668;52.012;8.724;2023-02-17T10:55:55;100106.28;;;12.11;100.00
11223;BME280;5668;52.012;8.724;2023-02-17T10:58:30;100104.38;;;12.13;100.00
11223;BME280;5668;52.012;8.724;2023-02-17T11:00:59;100098.94;;;12.16;100.00
11223;BME280;5668;52.012;8.724;2023-02-17T11:03:31;100087.31;;;12.20;100.00
11223;BME280;5668;52.012;8.724;2023-02-17T11:05:59;100069.06;;;12.20;100.00
11223;BME280;5668;52.012;8.724;2023-02-17T11:08:33;100076.53;;;12.24;100.00
11223;BME280;5668;52.012;8.724;2023-02-17T11:11:03;100066.44;;;12.31;100.00
11223;BME280;5668;52.012;8.724;2023-02-17T11:13:35;100071.88;;;12.28;100.00
11223;BME280;5668;52.012;8.724;2023-02-17T11:16:04;100066.19;;;12.34;100.00
11223;BME280;5668;52.012;8.724;2023-02-17T11:18:35;100067.59;;;12.38;100.00
11223;BME280;5668;52.012;8.724;2023-02-17T11:21:07;100057.72;;;12.41;100.00
11223;BME280;5668;52.012;8.724;2023-02-17T11:23:47;100067.09;;;12.44;100.00
11223;BME280;5668;52.012;8.724;2023-02-17T11:26:21;100073.97;;;12.45;100.00
11223;BME280;5668;52.012;8.724;2023-02-17T11:28:49;100076.56;;;12.45;100.00
11223;BME280;5668;52.012;8.724;2023-02-17T11:31:23;100073.69;;;12.48;100.00
11223;BME280;5668;52.012;8.724;2023-02-17T11:33:51;100080.31;;;12.52;100.00
11223;BME280;5668;52.012;8.724;2023-02-17T11:36:23;100070.34;;;12.57;100.00
11223;BME280;5668;52.012;8.724;2023-02-17T11:38:52;100076.50;;;12.56;100.00
11223;BME280;5668;52.012;8.724;2023-02-17T11:41:20;100073.41;;;12.62;100.00
11223;BME280;5668;52.012;8.724;2023-02-17T11:43:52;100072.19;;;12.66;100.00
11223;BME280;5668;52.012;8.724;2023-02-17T11:46:32;100064.25;;;12.68;100.00
11223;BME280;5668;52.012;8.724;2023-02-17T11:49:41;100073.88;;;12.67;100.00
11223;BME280;5668;52.012;8.724;2023-02-17T11:52:22;100068.13;;;12.73;100.00
11223;BME280;5668;52.012;8.724;2023-02-17T11:55:02;100067.06;;;12.76;100.00
11223;BME280;5668;52.012;8.724;2023-02-17T11:57:37;100054.47;;;12.81;100.00
11223;BME280;5668;52.012;8.724;2023-02-17T12:00:14;100030.88;;;12.83;100.00
11223;BME280;5668;52.012;8.724;2023-02-17T12:02:55;100026.34;;;12.85;100.00
11223;BME280;5668;52.012;8.724;2023-02-17T12:05:34;100018.25;;;12.88;100.00
11223;BME280;5668;52.012;8.724;2023-02-17T12:08:17;100015.53;;;12.89;100.00
11223;BME280;5668;52.012;8.724;2023-02-17T12:10:59;100034.50;;;12.91;100.00
11223;BME280;5668;52.012;8.724;2023-02-17T12:13:45;100047.41;;;12.93;100.00
11223;BME280;5668;52.012;8.724;2023-02-17T12:16:26;100036.28;;;12.91;100.00
11223;BME280;5668;52.012;8.724;2023-02-17T12:19:03;100040.78;;;12.89;100.00
11223;BME280;5668;52.012;8.724;2023-02-17T12:21:41;100070.41;;;12.88;100.00
11223;BME280;5668;52.012;8.724;2023-02-17T12:24:23;100073.50;;;12.93;100.00
11223;BME280;5668;52.012;8.724;2023-02-17T12:27:02;100063.06;;;12.93;100.00
11223;BME280;5668;52.012;8.724;2023-02-17T12:29:45;100060.44;;;12.93;99.75
11223;BME280;5668;52.012;8.724;2023-02-17T12:32:30;100053.56;;;12.92;99.91
11223;BME280;5668;52.012;8.724;2023-02-17T12:35:02;100052.88;;;12.90;99.13
11223;BME280;5668;52.012;8.724;2023-02-17T12:37:44;100042.75;;;12.96;99.42
11223;BME280;5668;52.012;8.724;2023-02-17T12:40:20;100053.19;;;12.96;99.79
11223;BME280;5668;52.012;8.724;2023-02-17T12:42:56;100054.97;;;12.96;99.82
11223;BME280;5668;52.012;8.724;2023-02-17T12:45:32;100061.31;;;13.03;99.85
11223;BME280;5668;52.012;8.724;2023-02-17T12:48:04;100061.78;;;13.08;99.42
11223;BME280;5668;52.012;8.724;2023-02-17T12:50:36;100066.53;;;13.03;99.34
11223;BME280;5668;52.012;8.724;2023-02-17T12:53:07;100068.31;;;13.02;98.97
11223;BME280;5668;52.012;8.724;2023-02-17T12:55:41;100080.91;;;12.97;99.32
11223;BME280;5668;52.012;8.724;2023-02-17T12:58:17;100077.47;;;12.97;99.50
11223;BME280;5668;52.012;8.724;2023-02-17T13:00:48;100079.16;;;12.98;99.56
11223;BME280;5668;52.012;8.724;2023-02-17T13:03:17;100080.91;;;12.97;99.89
11223;BME280;5668;52.012;8.724;2023-02-17T13:05:48;100083.41;;;12.99;99.35
11223;BME280;5668;52.012;8.724;2023-02-17T13:08:21;100082.59;;;12.98;99.81
11223;BME280;5668;52.012;8.724;2023-02-17T13:11:00;100070.25;;;13.00;99.79
11223;BME280;5668;52.012;8.724;2023-02-17T13:13:30;100085.91;;;13.00;99.82
11223;BME280;5668;52.012;8.724;2023-02-17T13:16:04;100097.97;;;13.01;99.99